Time;durP1;ratioP1;P1;durP2;ratioP2;P2;SDS_P1;SDS_P2;PMS_P1;PMS_P2;Temp;Humidity;BMP_temperature;BMP_pressure;BME280_temperature;BME280_humidity;BME280_pressure;Samples;Min_cycle;Max_cycle;Signal;HPM_P1;HPM_P2
2022/03/24 00:01:58;;;;;;;104.30;44.55;;;0.70;99.90;;;-0.85;81.83;102639.91;4997695;28;20097;-70
2022/03/24 00:04:24;;;;;;;89.07;39.58;;;0.70;99.90;;;-0.87;81.78;102632.94;5003479;28;20109;-70
2022/03/24 00:06:50;;;;;;;81.95;39.47;;;0.70;99.90;;;-0.87;82.28;102638.13;4999988;28;20131;-70
2022/03/24 00:09:16;;;;;;;88.40;37.72;;;0.70;99.90;;;-0.89;81.84;102637.19;4998161;28;20026;-70
2022/03/24 00:11:42;;;;;;;90.70;39.25;;;0.70;99.90;;;-0.92;81.47;102629.34;5003663;28;20034;-70
2022/03/24 00:14:08;;;;;;;75.30;36.65;;;0.60;99.90;;;-0.96;81.54;102627.50;4997285;28;20037;-70
2022/03/24 00:16:34;;;;;;;95.07;38.85;;;0.60;99.90;;;-0.99;81.45;102632.56;4996872;28;20390;-71
2022/03/24 00:19:00;;;;;;;77.78;35.15;;;0.60;99.90;;;-1.04;81.04;102630.72;5014042;28;20053;-70
2022/03/24 00:21:27;;;;;;;85.55;36.00;;;0.60;99.90;;;-1.08;80.94;102628.88;4995341;28;20040;-70
2022/03/24 00:23:53;;;;;;;76.68;34.83;;;0.50;99.90;;;-1.14;80.58;102626.09;4985297;28;20021;-70
2022/03/24 00:26:19;;;;;;;92.57;40.10;;;0.50;99.90;;;-1.17;80.51;102617.34;4994086;28;20505;-72
2022/03/24 00:28:45;;;;;;;104.80;43.25;;;0.40;99.90;;;-1.20;80.82;102625.88;5015807;28;20032;-70
2022/03/24 00:31:12;;;;;;;108.75;46.20;;;0.40;99.90;;;-1.22;81.39;102621.50;4998835;28;20029;-70
2022/03/24 00:33:39;;;;;;;116.13;48.63;;;0.40;99.90;;;-1.25;82.04;102620.56;5023261;28;20036;-70
2022/03/24 00:36:05;;;;;;;104.05;44.58;;;0.30;99.90;;;-1.26;82.82;102617.94;5017448;28;20026;-71
2022/03/24 00:38:31;;;;;;;112.07;45.85;;;0.30;99.90;;;-1.30;82.98;102616.06;5004627;28;20025;-71
2022/03/24 00:40:58;;;;;;;109.32;47.08;;;0.30;99.90;;;-1.30;83.88;102616.94;4997954;28;20092;-70
2022/03/24 00:43:24;;;;;;;106.97;45.40;;;0.30;99.90;;;-1.29;84.32;102615.25;5029397;28;20108;-69
2022/03/24 00:45:53;;;;;;;102.30;45.22;;;0.30;99.90;;;-1.29;84.71;102607.50;5018209;28;20498;-69
2022/03/24 00:48:19;;;;;;;96.35;44.53;;;0.30;99.90;;;-1.27;85.22;102606.72;4996455;28;20121;-69
2022/03/24 00:50:46;;;;;;;100.78;43.63;;;0.30;99.90;;;-1.24;85.11;102611.97;4992402;28;20030;-70
2022/03/24 00:53:11;;;;;;;107.22;45.05;;;0.40;99.90;;;-1.23;85.16;102607.69;4989700;28;20136;-69
2022/03/24 00:55:40;;;;;;;109.05;44.95;;;0.40;99.90;;;-1.19;85.49;102601.78;5006259;28;20132;-68
2022/03/24 00:58:06;;;;;;;116.22;45.75;;;0.40;99.90;;;-1.15;85.41;102610.50;5004022;28;20428;-70
2022/03/24 01:00:32;;;;;;;111.15;44.30;;;0.40;99.90;;;-1.13;84.90;102609.72;5011303;28;20092;-69
2022/03/24 01:03:01;;;;;;;104.35;44.13;;;0.40;99.90;;;-1.11;84.57;102602.91;5008955;28;20525;-69
2022/03/24 01:05:27;;;;;;;108.03;44.05;;;0.40;99.90;;;-1.12;84.77;102592.53;5000947;28;20494;-69
2022/03/24 01:07:55;;;;;;;107.22;41.80;;;0.50;99.90;;;-1.14;84.36;102596.78;5004904;28;20099;-70
2022/03/24 01:10:22;;;;;;;101.05;42.47;;;0.40;99.90;;;-1.24;84.07;102595.59;5000207;28;20100;-70
2022/03/24 01:12:50;;;;;;;101.05;44.25;;;0.30;99.90;;;-1.31;83.63;102591.94;5000219;28;20080;-69
2022/03/24 01:15:20;;;;;;;99.70;43.70;;;0.30;99.90;;;-1.34;83.54;102596.13;5003415;28;20388;-70
2022/03/24 01:17:47;;;;;;;99.95;45.33;;;0.30;99.90;;;-1.36;84.10;102593.50;5003216;28;20030;-69
2022/03/24 01:20:14;;;;;;;102.43;42.42;;;0.30;99.90;;;-1.41;84.32;102591.59;5001774;28;20025;-70
2022/03/24 01:22:41;;;;;;;106.03;42.72;;;0.20;99.90;;;-1.41;84.70;102587.28;5009723;28;20173;-69
2022/03/24 01:25:08;;;;;;;98.90;42.95;;;0.20;99.90;;;-1.40;84.89;102583.88;5000908;28;20034;-69
2022/03/24 01:27:35;;;;;;;99.75;43.63;;;0.20;99.90;;;-1.40;84.79;102580.41;4966237;28;20022;-69
2022/03/24 01:30:02;;;;;;;98.40;42.78;;;0.20;99.90;;;-1.42;84.78;102589.84;4981909;28;20046;-70
2022/03/24 01:32:28;;;;;;;108.10;44.35;;;0.20;99.90;;;-1.45;84.41;102594.09;4986941;28;20486;-69
2022/03/24 01:34:56;;;;;;;103.80;44.45;;;0.20;99.90;;;-1.46;84.77;102584.56;5003404;28;20026;-70
2022/03/24 01:37:24;;;;;;;100.80;43.67;;;0.20;99.90;;;-1.46;84.54;102587.13;5001116;28;20101;-69
2022/03/24 01:39:52;;;;;;;106.57;44.40;;;0.10;99.90;;;-1.46;84.07;102588.84;5000540;28;20037;-70
2022/03/24 01:42:19;;;;;;;104.45;45.38;;;0.10;99.90;;;-1.50;85.23;102580.13;4983738;28;20026;-69
2022/03/24 01:44:47;;;;;;;109.72;46.10;;;0.10;99.90;;;-1.48;85.07;102578.47;4973686;28;20549;-69
2022/03/24 01:47:15;;;;;;;114.82;48.15;;;0.10;99.90;;;-1.46;85.09;102575.94;4986579;28;20044;-69
2022/03/24 01:49:49;;;;;;;130.80;49.92;;;0.10;99.90;;;-1.45;85.59;102578.56;5000818;28;20046;-70
2022/03/24 01:52:18;;;;;;;111.40;44.47;;;0.10;99.90;;;-1.45;86.49;102576.00;5001095;28;20108;-70
2022/03/24 01:54:51;;;;;;;106.93;46.45;;;0.10;99.90;;;-1.54;88.12;102575.66;5000717;28;20025;-70
2022/03/24 01:57:19;;;;;;;108.40;44.15;;;0.10;99.90;;;-1.62;89.38;102584.91;4998175;28;20080;-70
2022/03/24 01:59:45;;;;;;;108.22;46.10;;;0.10;99.90;;;-1.63;91.05;102577.09;5000564;28;20053;-70
2022/03/24 02:02:13;;;;;;;99.28;44.25;;;0.10;99.90;;;-1.61;91.92;102591.81;5000257;28;20068;-69
2022/03/24 02:04:40;;;;;;;97.50;42.78;;;0.10;99.90;;;-1.71;92.61;102588.03;5001330;28;20122;-70
2022/03/24 02:07:08;;;;;;;95.25;40.67;;;0.00;99.90;;;-1.79;92.93;102598.91;5008170;28;20065;-70
2022/03/24 02:09:35;;;;;;;97.93;41.45;;;0.00;99.90;;;-1.89;92.92;102588.28;4999860;28;20041;-69
2022/03/24 02:12:05;;;;;;;109.18;44.78;;;-0.10;99.90;;;-1.82;93.45;102588.50;5008186;28;20030;-70
2022/03/24 02:14:31;;;;;;;122.07;46.47;;;-0.10;99.90;;;-1.82;93.01;102588.50;5002043;28;21573;-71
2022/03/24 02:16:58;;;;;;;121.25;48.90;;;-0.10;99.90;;;-1.78;92.71;102590.38;4985484;28;20042;-69
2022/03/24 02:19:27;;;;;;;115.78;45.85;;;-0.10;99.90;;;-1.78;93.10;102587.78;4999986;28;20061;-70
2022/03/24 02:22:09;;;;;;;114.30;45.80;;;-0.10;99.90;;;-1.75;92.37;102590.44;4999099;28;20038;-69
2022/03/24 02:24:37;;;;;;;106.88;44.28;;;-0.10;99.90;;;-1.73;91.83;102593.97;4997973;28;20053;-70
2022/03/24 02:27:04;;;;;;;91.10;39.78;;;-0.10;99.90;;;-1.76;90.93;102594.75;5001677;28;20132;-69
2022/03/24 02:29:30;;;;;;;87.85;39.22;;;-0.20;99.90;;;-1.89;89.59;102600.31;4978608;28;20667;-69
2022/03/24 02:31:56;;;;;;;98.93;42.88;;;-0.30;99.90;;;-2.01;88.70;102602.47;4994149;28;20087;-69
2022/03/24 02:34:47;;;;;;;95.05;42.83;;;-0.40;99.90;;;-2.07;88.37;102596.28;5008126;28;20554;-70
2022/03/24 02:37:20;;;;;;;91.38;38.78;;;-0.40;99.90;;;-2.15;87.08;102591.66;4998985;28;20041;-70
2022/03/24 02:39:49;;;;;;;91.55;39.88;;;-0.50;99.90;;;-2.27;86.63;102590.41;4992670;28;20033;-70
2022/03/24 02:42:20;;;;;;;89.30;40.90;;;-0.60;99.90;;;-2.31;86.25;102596.28;5002735;28;20112;-69
2022/03/24 02:44:53;;;;;;;96.95;42.13;;;-0.60;99.90;;;-2.34;86.06;102587.53;5000778;28;20472;-70
2022/03/24 02:47:19;;;;;;;98.78;39.70;;;-0.70;99.90;;;-2.41;86.17;102585.56;4994417;28;20541;-69
2022/03/24 02:49:48;;;;;;;88.97;38.53;;;-0.80;99.90;;;-2.49;85.32;102593.88;4998320;28;20153;-69
2022/03/24 02:52:14;;;;;;;92.93;40.03;;;-0.80;99.90;;;-2.54;85.47;102595.44;5015345;28;20064;-69
2022/03/24 02:54:41;;;;;;;93.18;38.35;;;-0.80;99.90;;;-2.59;85.27;102594.38;5005595;28;20038;-70
2022/03/24 02:57:09;;;;;;;85.90;38.22;;;-0.90;99.90;;;-2.63;84.80;102594.22;5002915;28;20017;-69
2022/03/24 02:59:36;;;;;;;91.72;37.72;;;-1.00;99.90;;;-2.66;84.91;102596.66;5015893;28;20021;-69
2022/03/24 03:02:13;;;;;;;89.45;38.47;;;-1.00;99.90;;;-2.70;85.13;102587.91;5001589;28;20021;-70
2022/03/24 03:04:44;;;;;;;97.13;39.90;;;-1.00;99.90;;;-2.73;85.30;102588.69;4993833;28;20819;-69
2022/03/24 03:07:11;;;;;;;94.88;40.20;;;-1.00;99.90;;;-2.74;85.41;102589.53;5013434;28;20026;-69
2022/03/24 03:09:42;;;;;;;94.95;40.08;;;-1.00;99.90;;;-2.70;85.94;102583.66;5008717;28;20443;-68
2022/03/24 03:12:10;;;;;;;99.18;41.35;;;-1.00;99.90;;;-2.67;86.35;102582.91;5003800;28;20041;-69
2022/03/24 03:14:36;;;;;;;93.60;37.95;;;-1.00;99.90;;;-2.66;85.97;102583.78;5012851;28;20042;-69
2022/03/24 03:17:02;;;;;;;101.70;41.28;;;-1.00;99.90;;;-2.66;85.86;102579.47;5008035;28;20033;-69
2022/03/24 03:19:29;;;;;;;102.05;42.65;;;-1.00;99.90;;;-2.67;86.34;102587.19;4998523;28;20033;-69
2022/03/24 03:21:56;;;;;;;96.18;43.53;;;-1.00;99.90;;;-2.67;86.11;102574.28;5005437;28;20033;-70
2022/03/24 03:24:22;;;;;;;96.50;41.55;;;-1.00;99.90;;;-2.66;86.83;102582.06;5000991;28;20041;-70
2022/03/24 03:26:50;;;;;;;108.35;43.38;;;-1.00;99.90;;;-2.66;86.85;102582.06;4999217;28;20054;-69
2022/03/24 03:29:23;;;;;;;104.55;42.13;;;-1.00;99.90;;;-2.64;86.96;102577.84;4998427;28;20554;-69
2022/03/24 03:31:53;;;;;;;106.20;44.05;;;-1.00;99.90;;;-2.62;87.02;102575.34;4998560;28;20041;-71
2022/03/24 03:34:21;;;;;;;121.10;48.50;;;-1.00;99.90;;;-2.62;87.00;102576.19;4995135;28;20041;-69
2022/03/24 03:36:47;;;;;;;118.15;47.45;;;-1.00;99.90;;;-2.62;87.38;102577.91;4999502;28;20030;-69
2022/03/24 03:39:13;;;;;;;110.30;45.33;;;-1.00;99.90;;;-2.62;87.71;102576.19;5013899;28;20037;-69
2022/03/24 03:41:39;;;;;;;120.43;47.95;;;-1.00;99.90;;;-2.61;88.03;102574.50;4986396;28;20372;-69
2022/03/24 03:44:06;;;;;;;115.78;44.55;;;-1.00;99.90;;;-2.62;88.31;102580.50;4978768;28;20038;-70
2022/03/24 03:46:33;;;;;;;112.18;45.90;;;-1.00;99.90;;;-2.62;88.63;102580.50;5001477;28;20038;-69
2022/03/24 03:48:59;;;;;;;120.28;47.65;;;-1.00;99.90;;;-2.61;88.31;102574.50;4979761;28;20026;-70
2022/03/24 03:51:27;;;;;;;108.05;45.65;;;-1.00;99.90;;;-2.60;88.25;102578.84;4996784;28;20030;-69
2022/03/24 03:53:54;;;;;;;117.07;48.40;;;-1.00;99.90;;;-2.58;88.21;102577.22;5005178;28;20025;-69
2022/03/24 03:56:21;;;;;;;118.00;47.58;;;-0.90;99.90;;;-2.61;89.00;102577.97;4999251;28;20034;-69
2022/03/24 03:58:47;;;;;;;118.10;47.88;;;-0.90;99.90;;;-2.55;89.97;102578.22;5006117;28;20022;-69
2022/03/24 04:01:13;;;;;;;107.70;45.05;;;-0.90;99.90;;;-2.52;90.01;102573.16;4987147;28;20022;-70
2022/03/24 04:03:40;;;;;;;103.47;41.40;;;-0.90;99.90;;;-2.55;90.19;102573.06;5000885;28;20567;-69
2022/03/24 04:06:10;;;;;;;111.20;45.08;;;-0.90;99.90;;;-2.59;89.07;102580.59;5004156;28;20041;-69
2022/03/24 04:08:43;;;;;;;106.60;43.42;;;-0.90;99.90;;;-2.65;88.96;102577.81;5000974;28;20036;-69
2022/03/24 04:11:12;;;;;;;112.97;45.70;;;-1.00;99.90;;;-2.69;88.99;102580.25;4981244;28;20031;-70
2022/03/24 04:13:43;;;;;;;113.50;46.15;;;-1.00;99.90;;;-2.72;88.59;102575.00;4991773;28;20039;-69
2022/03/24 04:16:11;;;;;;;114.18;45.05;;;-1.10;99.90;;;-2.88;90.05;102577.81;5006564;28;20114;-70
2022/03/24 04:18:43;;;;;;;123.68;50.05;;;-1.10;99.90;;;-2.79;91.13;102574.69;5002484;28;20368;-69
2022/03/24 04:21:11;;;;;;;116.00;47.40;;;-1.10;99.90;;;-2.74;91.86;102583.50;4997710;28;20075;-69
2022/03/24 04:23:40;;;;;;;126.60;48.45;;;-1.10;99.90;;;-2.76;91.45;102573.13;4999366;28;20042;-69
2022/03/24 04:26:07;;;;;;;121.55;49.58;;;-1.00;99.90;;;-2.75;91.74;102580.03;4999980;28;20049;-69
2022/03/24 04:28:33;;;;;;;113.75;45.40;;;-1.10;99.90;;;-2.74;92.53;102580.94;5001008;28;20565;-70
2022/03/24 04:30:59;;;;;;;103.20;41.50;;;-1.10;99.90;;;-2.83;93.01;102576.28;4984464;28;20564;-69
2022/03/24 04:33:26;;;;;;;112.13;42.63;;;-1.10;99.90;;;-2.83;93.46;102575.41;5000630;28;20437;-70
2022/03/24 04:35:52;;;;;;;98.28;42.13;;;-1.10;99.90;;;-2.81;93.27;102582.34;5005057;28;20026;-70
2022/03/24 04:38:19;;;;;;;106.18;42.17;;;-1.10;99.90;;;-2.83;93.42;102583.13;5003418;28;20038;-69
2022/03/24 04:40:45;;;;;;;107.68;43.58;;;-1.20;99.90;;;-2.92;92.86;102579.38;5015213;28;20033;-69
2022/03/24 04:43:12;;;;;;;100.07;41.38;;;-1.20;99.90;;;-2.93;92.60;102585.38;5004164;28;20479;-69
2022/03/24 04:45:38;;;;;;;106.45;44.45;;;-1.20;99.90;;;-2.94;91.66;102580.13;5000479;28;20038;-69
2022/03/24 04:48:04;;;;;;;106.35;41.33;;;-1.30;99.90;;;-2.97;92.07;102592.91;5008205;28;20033;-70
2022/03/24 04:50:30;;;;;;;95.07;38.72;;;-1.30;99.90;;;-3.10;93.40;102592.44;5002746;28;20044;-69
2022/03/24 04:52:57;;;;;;;109.05;44.08;;;-1.30;99.90;;;-3.06;93.54;102588.28;5008205;28;20086;-71
2022/03/24 04:55:23;;;;;;;100.38;41.80;;;-1.30;99.90;;;-3.04;94.20;102580.63;5019959;28;20076;-69
2022/03/24 04:57:49;;;;;;;109.82;43.35;;;-1.30;99.90;;;-3.02;94.79;102589.25;4990106;28;20031;-69
2022/03/24 05:00:18;;;;;;;100.68;41.67;;;-1.30;99.90;;;-3.00;95.45;102588.53;4984597;28;20026;-69
2022/03/24 05:02:47;;;;;;;120.80;45.65;;;-1.30;99.90;;;-2.93;95.78;102580.22;5016469;28;20034;-69
2022/03/24 05:05:15;;;;;;;114.03;45.50;;;-1.30;99.90;;;-2.89;95.60;102576.94;4994163;28;20022;-70
2022/03/24 05:07:42;;;;;;;118.55;46.50;;;-1.30;99.90;;;-2.82;94.60;102584.91;4985152;28;20659;-70
2022/03/24 05:10:09;;;;;;;108.65;45.30;;;-1.20;99.90;;;-2.85;94.40;102577.94;5003347;28;20402;-69
2022/03/24 05:12:38;;;;;;;110.88;43.75;;;-1.20;99.90;;;-2.78;93.98;102585.06;4991147;28;20022;-70
2022/03/24 05:15:08;;;;;;;116.35;42.40;;;-1.20;99.90;;;-2.68;93.32;102578.53;5003046;28;20541;-70
2022/03/24 05:17:36;;;;;;;114.28;45.20;;;-1.10;99.90;;;-2.60;92.40;102584.00;5009047;28;20387;-70
2022/03/24 05:20:02;;;;;;;94.75;41.67;;;-1.10;99.90;;;-2.53;91.65;102581.72;4984922;28;20017;-69
2022/03/24 05:22:28;;;;;;;93.95;41.38;;;-1.00;99.90;;;-2.45;91.18;102575.97;5002792;28;20093;-70
2022/03/24 05:24:54;;;;;;;97.93;41.38;;;-1.00;99.90;;;-2.34;90.03;102579.81;5009504;28;20113;-69
2022/03/24 05:27:20;;;;;;;82.95;36.92;;;-0.90;99.90;;;-2.23;88.98;102581.06;5000490;28;20109;-70
2022/03/24 05:29:46;;;;;;;84.50;37.45;;;-0.80;99.90;;;-2.13;88.44;102577.97;5004223;28;20064;-69
2022/03/24 05:32:12;;;;;;;91.25;37.75;;;-0.80;99.90;;;-2.04;86.98;102576.56;5001786;28;20451;-69
2022/03/24 05:34:38;;;;;;;97.03;39.05;;;-0.70;99.90;;;-1.99;85.74;102578.44;4993737;28;20021;-70
2022/03/24 05:37:04;;;;;;;93.82;37.60;;;-0.70;99.90;;;-1.92;84.25;102577.88;5005170;28;20057;-69
2022/03/24 05:39:30;;;;;;;96.30;38.97;;;-0.60;99.90;;;-1.81;83.29;102573.06;4994396;28;20030;-69
2022/03/24 05:41:58;;;;;;;87.35;38.22;;;-0.60;99.90;;;-1.69;82.84;102581.19;4975329;28;20076;-69
2022/03/24 05:44:24;;;;;;;86.47;36.20;;;-0.50;99.90;;;-1.60;82.53;102574.59;5000008;28;20026;-70
2022/03/24 05:46:51;;;;;;;88.03;38.28;;;-0.40;99.90;;;-1.49;81.54;102584.47;5003169;28;20040;-70
2022/03/24 05:49:19;;;;;;;98.97;40.08;;;-0.30;99.90;;;-1.33;80.61;102584.97;5001152;28;20093;-70
2022/03/24 05:51:46;;;;;;;98.10;41.00;;;-0.20;99.90;;;-1.10;80.07;102584.00;5002342;28;20044;-70
2022/03/24 05:54:14;;;;;;;99.68;40.90;;;0.00;99.90;;;-0.98;79.51;102582.59;4993100;28;20026;-70
2022/03/24 05:56:42;;;;;;;92.78;39.65;;;0.10;99.90;;;-0.74;79.15;102585.91;4989487;28;20495;-70
2022/03/24 05:59:08;;;;;;;86.95;38.72;;;0.20;99.90;;;-0.52;78.40;102586.56;4991886;28;20029;-70
2022/03/24 06:01:35;;;;;;;89.15;42.05;;;0.40;99.90;;;0.10;77.94;102594.31;5003965;28;20029;-69
2022/03/24 06:04:02;;;;;;;105.63;46.95;;;0.70;99.90;;;0.99;76.72;102591.31;4996126;28;20523;-70
2022/03/24 06:06:28;;;;;;;110.57;48.15;;;1.10;99.90;;;1.68;75.07;102592.78;5000238;28;20034;-70
2022/03/24 06:08:58;;;;;;;107.45;49.22;;;1.50;99.90;;;1.60;74.61;102589.19;4966779;28;20133;-71
2022/03/24 06:11:24;;;;;;;123.18;49.90;;;1.80;99.90;;;1.51;75.43;102604.56;4989839;28;20084;-70
2022/03/24 06:13:51;;;;;;;128.95;48.42;;;2.10;99.90;;;2.75;75.03;102603.38;5007514;28;20014;-70
2022/03/24 06:16:17;;;;;;;109.40;48.08;;;2.50;99.90;;;4.33;71.15;102605.34;4992303;28;20033;-70
2022/03/24 06:18:43;;;;;;;94.63;45.40;;;3.20;99.90;;;6.04;67.06;102606.38;5002650;28;20017;-70
2022/03/24 06:21:09;;;;;;;102.60;46.35;;;4.00;99.90;;;6.68;62.17;102601.22;5008088;28;20119;-70
2022/03/24 06:23:36;;;;;;;90.93;43.85;;;4.50;99.90;;;5.28;62.58;102613.03;5010335;28;20049;-70
2022/03/24 06:26:03;;;;;;;107.03;48.67;;;4.70;99.90;;;5.01;63.95;102613.72;5008113;28;20498;-70
2022/03/24 06:28:30;;;;;;;107.03;48.35;;;4.80;99.90;;;6.23;63.04;102616.00;5006217;28;20056;-70
2022/03/24 06:30:56;;;;;;;96.85;45.60;;;5.20;99.90;;;8.31;59.20;102616.31;5003106;28;20532;-70
2022/03/24 06:33:23;;;;;;;102.57;45.83;;;6.00;99.90;;;9.91;54.44;102616.50;4999397;28;20030;-70
2022/03/24 06:35:49;;;;;;;105.53;50.35;;;6.70;99.90;;;8.77;54.96;102626.53;4999608;28;20037;-70
2022/03/24 06:38:18;;;;;;;116.18;52.55;;;7.20;99.90;;;9.25;53.88;102626.06;4996579;28;20033;-70
2022/03/24 06:40:44;;;;;;;109.18;54.00;;;7.50;99.90;;;9.29;55.01;102629.50;5005168;28;20030;-70
2022/03/24 06:43:11;;;;;;;106.07;53.88;;;8.00;99.90;;;11.60;51.01;102638.25;5007036;28;20569;-70
2022/03/24 06:45:38;;;;;;;99.25;52.65;;;8.70;99.90;;;11.46;50.22;102641.16;5008112;28;20065;-71
2022/03/24 06:48:09;;;;;;;108.68;54.15;;;9.20;99.90;;;12.48;49.66;102654.81;5005240;28;20045;-70
2022/03/24 06:50:36;;;;;;;100.90;52.97;;;10.00;99.90;;;14.82;45.37;102656.13;4999498;28;20132;-70
2022/03/24 06:53:04;;;;;;;101.80;52.15;;;11.00;99.90;;;16.74;41.16;102670.19;5007229;28;20026;-70
2022/03/24 06:55:31;;;;;;;94.43;49.92;;;12.10;99.90;;;18.06;38.44;102688.38;4970921;28;20030;-70
2022/03/24 06:57:57;;;;;;;101.90;51.50;;;13.30;99.90;;;19.03;36.40;102705.84;4981737;28;20030;-70
2022/03/24 07:00:23;;;;;;;94.65;49.47;;;14.30;99.90;;;19.91;35.01;102719.97;4980244;28;20433;-70
2022/03/24 07:02:49;;;;;;;92.38;49.40;;;15.20;98.10;;;20.58;33.89;102731.44;4984334;28;20128;-70
2022/03/24 07:05:15;;;;;;;90.47;48.55;;;16.00;96.30;;;20.94;33.14;102748.97;4996176;28;20030;-70
2022/03/24 07:07:46;;;;;;;89.95;48.90;;;16.70;95.40;;;21.60;32.37;102757.59;5000172;28;20053;-73
2022/03/24 07:10:12;;;;;;;83.88;48.13;;;17.40;93.70;;;21.96;31.47;102770.53;5000698;28;20026;-70
2022/03/24 07:12:38;;;;;;;82.93;47.17;;;17.90;92.20;;;22.22;31.18;102773.38;4998200;28;20033;-70
2022/03/24 07:15:08;;;;;;;81.47;47.97;;;18.40;91.80;;;22.58;30.53;102791.66;5007724;28;20026;-71
2022/03/24 07:17:36;;;;;;;92.00;51.85;;;18.80;90.30;;;22.71;30.33;102795.25;4995818;28;20014;-71
2022/03/24 07:20:07;;;;;;;83.20;47.78;;;19.20;88.80;;;22.59;30.12;102801.44;5003969;28;20026;-71
2022/03/24 07:22:37;;;;;;;77.97;46.60;;;19.50;88.60;;;23.14;29.82;102802.34;4999206;28;20026;-71
2022/03/24 07:25:07;;;;;;;79.28;45.42;;;20.00;88.30;;;23.58;29.38;102806.47;4999547;28;20030;-70
2022/03/24 07:27:34;;;;;;;77.60;44.83;;;20.40;85.00;;;23.61;29.53;102822.44;5001421;28;20120;-70
2022/03/24 07:30:02;;;;;;;83.53;46.22;;;20.70;84.30;;;23.72;29.29;102819.00;4999341;28;20030;-70
2022/03/24 07:32:29;;;;;;;79.97;45.42;;;21.10;83.60;;;24.24;28.56;102828.78;5001510;28;20486;-71
2022/03/24 07:34:55;;;;;;;73.43;43.25;;;21.60;82.30;;;24.64;28.49;102834.00;5007625;28;20052;-70
2022/03/24 07:37:21;;;;;;;77.97;45.42;;;22.20;81.10;;;25.03;28.17;102832.00;5005921;28;20030;-70
2022/03/24 07:39:47;;;;;;;82.35;46.05;;;22.70;79.30;;;25.31;27.65;102849.72;4996525;28;20155;-71
2022/03/24 07:42:14;;;;;;;73.90;45.88;;;23.20;77.60;;;25.48;27.72;102859.19;5003219;28;20120;-72
2022/03/24 07:44:41;;;;;;;78.97;45.95;;;23.50;76.50;;;25.44;27.70;102860.38;5004662;28;20113;-71
2022/03/24 07:47:08;;;;;;;76.70;44.53;;;23.80;76.10;;;25.76;27.22;102867.84;5005119;28;20494;-71
2022/03/24 07:49:34;;;;;;;77.05;43.92;;;24.20;74.50;;;25.92;27.08;102872.94;5007783;28;20087;-71
2022/03/24 07:52:08;;;;;;;66.78;40.75;;;24.40;73.60;;;26.05;26.94;102883.63;5015253;28;20039;-71
2022/03/24 07:54:55;;;;;;;69.93;42.78;;;24.70;72.90;;;26.19;26.67;102888.78;4976168;28;20026;-71
2022/03/24 07:57:26;;;;;;;66.47;41.08;;;25.00;71.10;;;26.24;26.57;102888.44;4978161;28;20113;-71
2022/03/24 07:59:52;;;;;;;69.95;41.75;;;25.20;70.10;;;26.14;26.79;102891.00;4991241;28;20494;-72
2022/03/24 08:02:19;;;;;;;67.00;40.05;;;25.40;70.90;;;26.34;26.81;102886.72;4988662;28;20954;-72
2022/03/24 08:04:46;;;;;;;67.45;40.90;;;25.60;69.50;;;26.36;26.69;102900.97;4998428;28;20552;-72
2022/03/24 08:07:12;;;;;;;70.53;40.67;;;25.90;69.20;;;26.46;26.46;102898.38;4998860;28;20156;-72
2022/03/24 08:09:38;;;;;;;65.07;40.25;;;26.00;67.60;;;26.62;26.17;102907.00;5008599;28;20115;-73
2022/03/24 08:12:04;;;;;;;63.08;38.42;;;26.20;66.90;;;26.58;26.00;102911.78;5002234;28;20041;-73
2022/03/24 08:14:30;;;;;;;68.43;39.53;;;26.40;66.70;;;26.79;26.40;102911.03;5003895;28;20040;-73
2022/03/24 08:16:56;;;;;;;59.67;39.13;;;26.60;66.90;;;26.79;26.14;102917.28;5004470;28;20483;-73
2022/03/24 08:19:22;;;;;;;62.40;39.35;;;26.80;66.50;;;26.88;26.42;102917.53;5008105;28;20022;-73
2022/03/24 08:21:48;;;;;;;61.20;37.60;;;26.90;65.00;;;26.82;26.26;102928.84;5000183;28;20140;-73
2022/03/24 08:24:20;;;;;;;64.47;39.03;;;27.00;64.80;;;26.69;26.07;102929.81;5002949;28;20033;-73
2022/03/24 08:26:46;;;;;;;63.70;39.13;;;27.10;63.50;;;26.64;26.40;102926.66;5010830;28;20046;-72
2022/03/24 08:29:12;;;;;;;61.08;37.35;;;27.10;62.80;;;26.36;26.58;102930.66;5004091;28;20132;-73
2022/03/24 08:31:38;;;;;;;64.38;39.00;;;27.00;63.60;;;26.34;26.55;102929.94;5003432;28;20080;-73
2022/03/24 08:34:04;;;;;;;65.28;38.45;;;27.00;62.90;;;26.37;26.07;102935.97;5003421;28;20439;-73
2022/03/24 08:36:30;;;;;;;63.45;38.28;;;26.90;62.30;;;26.36;26.38;102938.75;5017391;28;20018;-74
2022/03/24 08:38:56;;;;;;;61.53;37.13;;;26.90;62.30;;;26.21;26.27;102935.44;5006569;28;20041;-73
2022/03/24 08:41:23;;;;;;;60.60;38.20;;;26.80;61.40;;;25.89;26.58;102941.50;5002340;28;20022;-73
2022/03/24 08:43:50;;;;;;;65.55;38.20;;;26.50;60.70;;;25.22;27.11;102939.34;4989429;28;20133;-74
2022/03/24 08:46:16;;;;;;;62.97;38.05;;;26.20;61.20;;;24.91;27.23;102946.97;5000346;28;20525;-73
2022/03/24 08:48:42;;;;;;;69.72;39.85;;;25.80;61.20;;;24.49;27.53;102940.13;4995620;28;20164;-73
2022/03/24 08:51:08;;;;;;;75.35;42.60;;;25.50;61.30;;;24.45;27.38;102938.59;5008388;28;20566;-73
2022/03/24 08:53:34;;;;;;;70.00;39.92;;;25.30;61.50;;;24.01;27.63;102943.44;4992313;28;20084;-73
2022/03/24 08:56:00;;;;;;;81.53;43.42;;;24.90;61.50;;;23.74;27.94;102941.63;5006405;28;20113;-73
2022/03/24 08:58:27;;;;;;;77.30;43.53;;;24.60;61.60;;;23.30;27.81;102940.09;5008320;28;20101;-73
2022/03/24 09:00:53;;;;;;;76.82;41.72;;;24.20;62.60;;;23.14;28.30;102942.06;4998689;28;20030;-73
2022/03/24 09:03:19;;;;;;;75.75;40.00;;;24.00;63.70;;;23.17;28.52;102935.63;5010608;28;20099;-73
2022/03/24 09:05:45;;;;;;;72.85;41.10;;;23.80;63.40;;;22.98;28.95;102942.16;5008756;28;20194;-73
2022/03/24 09:08:12;;;;;;;75.00;40.70;;;23.60;65.00;;;22.90;29.35;102936.41;5005910;28;20037;-73
2022/03/24 09:10:38;;;;;;;72.40;39.95;;;23.40;64.30;;;22.68;29.55;102939.63;5005719;28;20033;-73
2022/03/24 09:13:04;;;;;;;74.05;39.95;;;23.20;64.50;;;22.34;28.36;102938.19;5016172;28;20037;-74
2022/03/24 09:15:30;;;;;;;77.88;40.67;;;22.90;64.90;;;22.10;29.17;102939.53;5001254;28;20367;-73
2022/03/24 09:17:56;;;;;;;76.70;40.08;;;22.60;65.00;;;21.89;29.27;102939.00;5002229;28;20045;-72
2022/03/24 09:20:23;;;;;;;70.70;39.72;;;22.20;65.70;;;21.54;30.04;102927.69;5008664;28;20109;-73
2022/03/24 09:22:49;;;;;;;71.15;38.80;;;21.80;66.40;;;21.17;30.62;102920.88;4992651;28;20026;-73
2022/03/24 09:25:19;;;;;;;71.28;39.25;;;21.50;66.90;;;20.78;31.52;102922.16;5003647;28;20536;-72
2022/03/24 09:27:46;;;;;;;74.32;38.05;;;21.10;67.80;;;20.17;31.72;102912.91;5002334;28;20397;-73
2022/03/24 09:30:15;;;;;;;1999.90;999.90;;;20.60;69.20;;;19.68;32.54;102918.97;5000647;28;20037;-73
2022/03/24 09:32:42;;;;;;;1999.90;999.90;;;20.20;69.00;;;19.24;33.16;102919.34;4999497;28;20025;-73
2022/03/24 09:35:10;;;;;;;49.85;21.90;;;19.90;70.10;;;18.87;34.23;102905.06;5007107;28;20034;-73
2022/03/24 09:37:37;;;;;;;80.20;41.85;;;19.60;71.00;;;18.57;34.70;102905.53;5012533;28;20034;-72
2022/03/24 09:40:06;;;;;;;74.82;39.30;;;19.30;71.20;;;18.24;35.10;102906.13;4999541;28;20042;-72
2022/03/24 09:42:34;;;;;;;71.72;39.45;;;19.00;71.50;;;18.12;34.89;102903.13;5002764;28;20509;-73
2022/03/24 09:45:05;;;;;;;73.22;39.10;;;18.90;71.50;;;17.89;35.50;102902.34;4997799;28;20021;-73
2022/03/24 09:47:33;;;;;;;74.10;38.95;;;18.70;73.10;;;17.75;36.30;102894.03;5005349;28;20517;-73
2022/03/24 09:49:59;;;;;;;72.50;39.85;;;18.60;73.90;;;17.68;36.71;102897.91;5005209;28;20053;-73
2022/03/24 09:52:25;;;;;;;76.05;39.90;;;18.50;73.40;;;17.51;36.76;102890.59;5006802;28;20041;-73
2022/03/24 09:54:53;;;;;;;74.85;39.63;;;18.30;73.10;;;17.47;36.36;102884.53;5007460;28;20030;-72
2022/03/24 09:57:20;;;;;;;74.82;38.92;;;18.20;74.70;;;17.30;37.38;102882.59;4995422;28;20033;-73
2022/03/24 09:59:46;;;;;;;75.28;40.03;;;18.20;75.50;;;17.36;37.61;102879.63;5000890;28;20479;-72
2022/03/24 10:02:13;;;;;;;70.18;40.28;;;18.10;74.90;;;17.26;37.47;102882.78;5014565;28;20399;-73